General Aviation Weather

Text Reports

Enter one or more of the following location identifiers separated by a space:

Zip Code, Four-Character ICAO or Three-Character IATA airport codes.

METAR - Aviation Routine Weather Report
KAOH - Lima, Ohio
Updated at 9:53 PM GMT on September 17, 2014 (5:53 PM EDT):
METAR KAOH 172153Z AUTO 32004KT 10SM SCT048 19/09 A2999 RMK AO2 SLP156 T01890089
TAF - Terminal Area Forecast
KAOH - Lima, Ohio
Updated at 9:53 PM GMT on September 17, 2014 (5:53 PM EDT):
No TAF is currently available for this location.
Decoded:
No decoded TAF is available.
PIREP - Pilot Weather Report
KAOH - Lima, Ohio
Updated at 9:53 PM GMT on September 17, 2014 (5:53 PM EDT):
No PIREP is currently available for this location.
AIRMET - Airmens Meteorological Information
KAOH - Lima, Ohio
Updated at 9:53 PM GMT on September 17, 2014 (5:53 PM EDT):
No AIRMET is currently available for this location.
SIGMET - Significant Meteorological Information
KAOH - Lima, Ohio
Updated at 9:53 PM GMT on September 17, 2014 (5:53 PM EDT):
No SIGMET is currently available for this location.
NOTAM - Notice to Airmen
KAOH - Lima, Ohio
Updated at 9:53 PM GMT on September 17, 2014 (5:53 PM EDT):
No NOTAM is currently available for this location.
Forecast Area
KAOH - Lima, Ohio
Updated at 9:53 PM GMT on September 17, 2014 (5:53 PM EDT):
No NOTAM is currently available for this location.
Aviation Weather Maps